首页
METAR-TAF:

METAR-TAF

机场 :

格洛斯特, 英格兰

纬度: 51-54N, 经度: 002-10W, 海拔: 29米

当前天气观测

该预报发布于35分钟前的13:50 UTC
风速10节,风向
温度 10°C
湿度 93%
气压 1004 hPa
能見度: 8000
少量云层高于900英尺
多云层高于2000英尺
多云层高于4000英尺
小雨

METAR: EGBJ 261350Z 19010KT 8000 -RA FEW009 BKN020 BKN040 10/09 Q1004

时间: 14:25 (14:25 UTC)

预报

该预报发布于3小时和19分钟前的11:06 UTC
预报有效从26日的 12点(UTC)到 26日的 19点(UTC)
风速10节,风向南转西南
能见度10公里或以上
散云层高于1800英尺
短暂存在
从 26日的 12点(UTC)到 26日的 15点(UTC)
能見度: 8000
多云层高于1400英尺
小雨
几率 40% :
短暂存在
从 26日的 12点(UTC)到 26日的 14点(UTC)
风速15节,风向,有时为25节阵风
能見度: 4000
多云层高于900英尺
几率 30% :
短暂存在
从 26日的 15点(UTC)到 26日的 16点(UTC)
能見度: 7000
多云层高于1400英尺
阵雨

TAF: EGBJ 261106Z 2612/2619 20010KT 9999 SCT018 TEMPO 2612/2615 8000 -RA BKN014 PROB40 TEMPO 2612/2614 19015G25KT 4000 RA BKN009 PROB30 TEMPO 2615/2616 7000 SHRA BKN014

超过4000个机场的气象观测和天气预报(METAR&TAF报告)。

可查询的气象台以黄色和红色小点在地图上表示。

将鼠标移到小点上方,可查看气象台名称。

然后点击查看天气观测和预报。

如需切换地图:点击带黑十字的绿色按钮放大地图;点击带横线的绿色按钮缩小地图;或者点击绿色箭头查看邻近地区的地图。


METAR-TAF: